createdAt,value
2022-09-16T00:00:37.451Z,0.00
2022-09-16T00:01:36.742Z,0.00
2022-09-16T00:02:39.981Z,0.00
2022-09-16T00:03:36.694Z,0.00
2022-09-16T00:04:36.727Z,0.00
2022-09-16T00:05:36.668Z,0.00
2022-09-16T00:06:36.739Z,0.00
2022-09-16T00:07:36.671Z,0.00
2022-09-16T00:08:36.678Z,0.00
2022-09-16T00:09:36.673Z,0.00
2022-09-16T00:10:36.639Z,0.00
2022-09-16T00:11:36.607Z,0.00
2022-09-16T00:12:36.590Z,0.00
2022-09-16T00:13:36.584Z,0.00
2022-09-16T00:14:36.571Z,0.00
2022-09-16T00:15:37.398Z,0.00
2022-09-16T00:16:36.990Z,0.00
2022-09-16T00:17:36.537Z,0.00
2022-09-16T00:18:36.526Z,0.00
2022-09-16T00:19:36.519Z,0.00
2022-09-16T00:20:36.504Z,0.00
2022-09-16T00:21:36.814Z,0.00
2022-09-16T00:22:36.483Z,0.00
2022-09-16T00:23:36.472Z,0.00
2022-09-16T00:24:36.486Z,0.00
2022-09-16T00:25:36.445Z,0.00
2022-09-16T00:26:36.480Z,0.00
2022-09-16T00:27:36.440Z,0.00
2022-09-16T00:28:36.435Z,0.00
2022-09-16T00:29:36.414Z,0.00
2022-09-16T00:30:36.397Z,0.00
2022-09-16T00:31:36.436Z,0.00
2022-09-16T00:32:36.530Z,0.00
2022-09-16T00:33:36.381Z,0.00
2022-09-16T00:34:36.842Z,0.00
2022-09-16T00:35:36.365Z,0.00
2022-09-16T00:36:36.349Z,0.00
2022-09-16T00:37:36.448Z,0.00
2022-09-16T00:38:36.366Z,0.00
2022-09-16T00:39:39.335Z,0.00
2022-09-16T00:40:36.725Z,0.00
2022-09-16T00:41:36.281Z,0.00
2022-09-16T00:42:36.257Z,0.00
2022-09-16T00:43:36.250Z,0.00
2022-09-16T00:44:36.271Z,0.00
2022-09-16T00:45:36.230Z,0.00
2022-09-16T00:46:36.270Z,0.00
2022-09-16T00:47:36.206Z,0.00
2022-09-16T00:48:36.196Z,0.00
2022-09-16T00:49:39.575Z,0.00
2022-09-16T00:50:36.170Z,0.00
2022-09-16T00:51:36.385Z,0.00
2022-09-16T00:52:36.147Z,0.00
2022-09-16T00:53:40.787Z,0.00
2022-09-16T00:54:37.152Z,0.00
2022-09-16T00:55:36.914Z,0.00
2022-09-16T00:56:36.104Z,0.00
2022-09-16T00:57:36.106Z,0.00
2022-09-16T00:58:36.081Z,0.00
2022-09-16T00:59:36.122Z,0.00
2022-09-16T01:00:36.146Z,0.00
2022-09-16T01:01:36.161Z,0.00
2022-09-16T01:02:36.042Z,0.00
2022-09-16T01:03:36.039Z,0.00
2022-09-16T01:04:36.296Z,0.00
2022-09-16T01:05:36.009Z,0.00
2022-09-16T01:06:36.020Z,0.00
2022-09-16T01:07:35.985Z,0.00
2022-09-16T01:08:35.996Z,0.00
2022-09-16T01:09:35.979Z,0.00
2022-09-16T01:10:35.954Z,0.00
2022-09-16T01:11:35.960Z,0.00
2022-09-16T01:12:36.143Z,0.00
2022-09-16T01:13:35.918Z,0.00
2022-09-16T01:14:35.926Z,0.00
2022-09-16T01:15:35.907Z,0.00
2022-09-16T01:16:35.954Z,0.00
2022-09-16T01:17:35.876Z,0.00
2022-09-16T01:18:35.865Z,0.00
2022-09-16T01:19:35.866Z,0.00
2022-09-16T01:20:35.841Z,0.00
2022-09-16T01:21:35.830Z,0.00
2022-09-16T01:22:35.819Z,0.00
2022-09-16T01:23:35.812Z,0.00
2022-09-16T01:24:35.813Z,0.00
2022-09-16T01:25:35.958Z,0.00
2022-09-16T01:26:35.769Z,0.00
2022-09-16T01:27:35.787Z,0.00
2022-09-16T01:28:40.207Z,0.00
2022-09-16T01:29:35.777Z,0.00
2022-09-16T01:30:35.736Z,0.00
2022-09-16T01:31:36.222Z,0.00
2022-09-16T01:32:35.781Z,0.00
2022-09-16T01:33:38.844Z,0.00
2022-09-16T01:34:35.688Z,0.00
2022-09-16T01:35:35.675Z,0.00
2022-09-16T01:36:35.665Z,0.00
2022-09-16T01:37:35.652Z,0.00
2022-09-16T01:38:35.641Z,0.00
2022-09-16T01:39:35.647Z,0.00
2022-09-16T01:40:35.617Z,0.00
2022-09-16T01:41:35.638Z,0.00
2022-09-16T01:42:35.879Z,0.00
2022-09-16T01:43:35.666Z,0.00
2022-09-16T01:44:35.573Z,0.00
2022-09-16T01:45:35.565Z,0.00
2022-09-16T01:46:35.754Z,0.00
2022-09-16T01:47:35.534Z,0.00
2022-09-16T01:48:35.546Z,0.00
2022-09-16T01:49:35.535Z,0.00
2022-09-16T01:50:35.510Z,0.00
2022-09-16T01:51:35.499Z,0.00
2022-09-16T01:52:35.480Z,0.00
2022-09-16T01:53:35.472Z,0.00
2022-09-16T01:54:35.477Z,0.00
2022-09-16T01:55:35.455Z,0.00
2022-09-16T01:56:35.440Z,0.00
2022-09-16T01:57:35.490Z,0.00
2022-09-16T01:58:35.423Z,0.00
2022-09-16T01:59:35.446Z,0.00
2022-09-16T02:00:35.400Z,0.00
2022-09-16T02:01:35.474Z,0.00
2022-09-16T02:02:35.504Z,0.00
2022-09-16T02:03:35.362Z,0.00
2022-09-16T02:04:37.461Z,0.00
2022-09-16T02:05:35.341Z,0.00
2022-09-16T02:06:35.336Z,0.00
2022-09-16T02:07:35.315Z,0.00
2022-09-16T02:08:35.304Z,0.00
2022-09-16T02:09:35.321Z,0.00
2022-09-16T02:10:35.306Z,0.00
2022-09-16T02:11:35.271Z,0.00
2022-09-16T02:12:35.257Z,0.00
2022-09-16T02:13:35.248Z,0.00
2022-09-16T02:14:35.500Z,0.00
2022-09-16T02:15:35.305Z,0.00
2022-09-16T02:16:35.247Z,0.00
2022-09-16T02:17:35.200Z,0.00
2022-09-16T02:18:35.193Z,0.00
2022-09-16T02:19:35.220Z,0.00
2022-09-16T02:20:35.311Z,0.00
2022-09-16T02:21:35.156Z,0.00
2022-09-16T02:22:35.149Z,0.00
2022-09-16T02:23:35.134Z,0.00
2022-09-16T02:24:35.127Z,0.00
2022-09-16T02:25:35.639Z,0.00
2022-09-16T02:26:35.101Z,0.00
2022-09-16T02:27:35.101Z,0.00
2022-09-16T02:28:35.081Z,0.00
2022-09-16T02:29:35.089Z,0.00
2022-09-16T02:30:35.099Z,0.00
2022-09-16T02:31:35.257Z,0.00
2022-09-16T02:32:35.031Z,0.00
2022-09-16T02:33:35.046Z,0.00
2022-09-16T02:34:35.011Z,0.00
2022-09-16T02:35:36.060Z,0.00
2022-09-16T02:36:34.991Z,0.00
2022-09-16T02:37:35.069Z,0.00
2022-09-16T02:38:34.986Z,0.00
2022-09-16T02:39:34.965Z,0.00
2022-09-16T02:40:34.964Z,0.00
2022-09-16T02:41:34.935Z,0.00
2022-09-16T02:42:34.921Z,0.00
2022-09-16T02:43:34.925Z,0.00
2022-09-16T02:44:34.898Z,0.00
2022-09-16T02:45:34.889Z,0.00
2022-09-16T02:46:35.098Z,0.00
2022-09-16T02:47:34.904Z,0.00
2022-09-16T02:48:34.892Z,0.00
2022-09-16T02:49:34.860Z,0.00
2022-09-16T02:50:34.857Z,0.00
2022-09-16T02:51:34.839Z,0.00
2022-09-16T02:52:35.212Z,0.00
2022-09-16T02:53:34.833Z,0.00
2022-09-16T02:54:34.878Z,0.00
2022-09-16T02:55:34.805Z,0.00
2022-09-16T02:56:34.767Z,0.00
2022-09-16T02:57:34.790Z,0.00
2022-09-16T02:58:34.744Z,0.00
2022-09-16T02:59:34.739Z,0.00
2022-09-16T03:00:34.724Z,0.00
2022-09-16T03:01:34.984Z,0.00
2022-09-16T03:02:34.743Z,0.00
2022-09-16T03:03:34.710Z,0.00
2022-09-16T03:04:34.679Z,0.00
2022-09-16T03:05:34.670Z,0.00
2022-09-16T03:06:34.672Z,0.00
2022-09-16T03:07:34.675Z,0.00
2022-09-16T03:08:34.679Z,0.00
2022-09-16T03:09:34.628Z,0.00
2022-09-16T03:10:34.611Z,0.00
2022-09-16T03:11:34.625Z,0.00
2022-09-16T03:12:34.601Z,0.00
2022-09-16T03:13:34.608Z,0.00
2022-09-16T03:14:34.569Z,0.00
2022-09-16T03:15:34.688Z,0.00
2022-09-16T03:16:34.542Z,0.00
2022-09-16T03:17:34.537Z,0.00
2022-09-16T03:18:34.669Z,0.00
2022-09-16T03:19:35.284Z,0.00
2022-09-16T03:20:34.501Z,0.00
2022-09-16T03:21:34.492Z,0.00
2022-09-16T03:22:34.492Z,0.00
2022-09-16T03:23:34.502Z,0.00
2022-09-16T03:24:36.382Z,0.00
2022-09-16T03:25:34.444Z,0.00
2022-09-16T03:26:34.450Z,0.00
2022-09-16T03:27:34.441Z,0.00
2022-09-16T03:28:34.418Z,0.00
2022-09-16T03:29:34.400Z,0.00
2022-09-16T03:30:34.393Z,0.00
2022-09-16T03:31:34.419Z,0.00
2022-09-16T03:32:34.408Z,0.00
2022-09-16T03:33:34.361Z,0.00
2022-09-16T03:34:34.343Z,0.00
2022-09-16T03:35:35.552Z,0.00
2022-09-16T03:36:34.326Z,0.00
2022-09-16T03:37:34.332Z,0.00
2022-09-16T03:38:34.298Z,0.00
2022-09-16T03:39:34.443Z,0.00
2022-09-16T03:40:34.459Z,0.00
2022-09-16T03:41:34.628Z,0.00
2022-09-16T03:42:34.255Z,0.00
2022-09-16T03:43:34.248Z,0.00
2022-09-16T03:44:34.232Z,0.00
2022-09-16T03:45:34.242Z,0.00
2022-09-16T03:46:34.264Z,0.00
2022-09-16T03:47:34.201Z,0.00
2022-09-16T03:48:34.190Z,0.00
2022-09-16T03:49:34.201Z,0.00
2022-09-16T03:50:34.185Z,0.00
2022-09-16T03:51:34.175Z,0.00
2022-09-16T03:52:34.303Z,0.00
2022-09-16T03:53:34.140Z,0.00
2022-09-16T03:54:34.150Z,0.00
2022-09-16T03:55:44.020Z,0.00
2022-09-16T03:56:34.345Z,0.00
2022-09-16T03:57:34.085Z,0.00
2022-09-16T03:58:34.077Z,0.00
2022-09-16T03:59:34.082Z,0.00
2022-09-16T04:00:34.069Z,0.00
2022-09-16T04:01:34.116Z,0.00
2022-09-16T04:02:34.159Z,0.00
2022-09-16T04:03:34.030Z,0.00
2022-09-16T04:04:34.006Z,0.00
2022-09-16T04:05:34.032Z,0.00
2022-09-16T04:06:34.002Z,0.00
2022-09-16T04:07:34.163Z,0.00
2022-09-16T04:08:33.976Z,0.00
2022-09-16T04:09:36.068Z,4.00
2022-09-16T04:10:33.955Z,4.00
2022-09-16T04:11:34.459Z,4.00
2022-09-16T04:12:33.916Z,0.00
2022-09-16T04:13:33.905Z,4.00
2022-09-16T04:14:36.152Z,4.00
2022-09-16T04:15:35.164Z,4.00
2022-09-16T04:16:34.600Z,8.00
2022-09-16T04:17:33.868Z,8.00
2022-09-16T04:18:33.857Z,8.00
2022-09-16T04:19:33.861Z,12.00
2022-09-16T04:20:33.846Z,12.00
2022-09-16T04:21:33.820Z,12.00
2022-09-16T04:22:33.809Z,16.00
2022-09-16T04:23:33.817Z,20.00
2022-09-16T04:24:33.952Z,24.00
2022-09-16T04:25:33.775Z,24.00
2022-09-16T04:26:33.767Z,32.00
2022-09-16T04:27:33.751Z,40.00
2022-09-16T04:28:33.990Z,48.00
2022-09-16T04:29:33.731Z,56.00
2022-09-16T04:30:33.834Z,52.00
2022-09-16T04:31:33.709Z,56.00
2022-09-16T04:32:33.695Z,80.00
2022-09-16T04:33:33.706Z,80.00
2022-09-16T04:34:33.675Z,76.00
2022-09-16T04:35:33.678Z,88.00
2022-09-16T04:36:33.658Z,120.00
2022-09-16T04:37:33.639Z,144.00
2022-09-16T04:38:33.646Z,152.00
2022-09-16T04:39:33.641Z,144.00
2022-09-16T04:40:33.732Z,168.00
2022-09-16T04:41:33.602Z,192.00
2022-09-16T04:42:33.613Z,228.00
2022-09-16T04:43:34.766Z,248.00
2022-09-16T04:44:33.565Z,296.00
2022-09-16T04:45:33.552Z,288.00
2022-09-16T04:46:33.590Z,316.00
2022-09-16T04:47:33.565Z,344.00
2022-09-16T04:48:33.523Z,428.00
2022-09-16T04:49:33.503Z,432.00
2022-09-16T04:50:33.500Z,460.00
2022-09-16T04:51:36.098Z,500.00
2022-09-16T04:52:33.481Z,524.00
2022-09-16T04:53:33.463Z,552.00
2022-09-16T04:54:33.451Z,644.00
2022-09-16T04:55:33.460Z,628.00
2022-09-16T04:56:33.501Z,648.00
2022-09-16T04:57:33.418Z,704.00
2022-09-16T04:58:33.420Z,836.00
2022-09-16T04:59:33.404Z,984.00
2022-09-16T05:00:33.462Z,1088.00
2022-09-16T05:01:33.441Z,1036.00
2022-09-16T05:02:33.365Z,976.00
2022-09-16T05:03:33.449Z,1100.00
2022-09-16T05:04:33.343Z,1156.00
2022-09-16T05:05:33.329Z,1080.00
2022-09-16T05:06:33.337Z,1080.00
2022-09-16T05:07:34.320Z,1188.00
2022-09-16T05:08:33.297Z,1284.00
2022-09-16T05:09:33.286Z,1092.00
2022-09-16T05:10:33.283Z,1208.00
2022-09-16T05:11:33.434Z,1312.00
2022-09-16T05:12:33.254Z,1392.00
2022-09-16T05:13:33.238Z,1508.00
2022-09-16T05:14:33.318Z,1624.00
2022-09-16T05:15:33.239Z,1856.00
2022-09-16T05:16:33.311Z,1904.00
2022-09-16T05:17:50.286Z,1996.00
2022-09-16T05:18:34.190Z,2016.00
2022-09-16T05:19:33.183Z,1932.00
2022-09-16T05:20:33.166Z,1860.00
2022-09-16T05:21:33.171Z,1572.00
2022-09-16T05:22:33.143Z,1724.00
2022-09-16T05:23:33.130Z,1524.00
2022-09-16T05:24:33.122Z,1488.00
2022-09-16T05:25:33.105Z,1528.00
2022-09-16T05:26:33.120Z,1536.00
2022-09-16T05:27:33.199Z,1592.00
2022-09-16T05:28:33.072Z,1732.00
2022-09-16T05:29:33.061Z,1732.00
2022-09-16T05:30:35.632Z,1668.00
2022-09-16T05:31:33.037Z,2212.00
2022-09-16T05:32:33.253Z,2472.00
2022-09-16T05:33:33.029Z,3376.00
2022-09-16T05:34:33.012Z,2764.00
2022-09-16T05:35:33.009Z,2964.00
2022-09-16T05:36:33.127Z,2756.00
2022-09-16T05:37:32.972Z,2548.00
2022-09-16T05:38:32.962Z,3684.00
2022-09-16T05:39:34.201Z,3524.00
2022-09-16T05:40:33.009Z,3704.00
2022-09-16T05:41:32.931Z,2636.00
2022-09-16T05:42:32.921Z,2448.00
2022-09-16T05:43:33.025Z,2764.00
2022-09-16T05:44:32.983Z,2840.00
2022-09-16T05:45:32.900Z,3428.00
2022-09-16T05:46:32.872Z,2896.00
2022-09-16T05:47:32.876Z,3432.00
2022-09-16T05:48:32.857Z,4132.00
2022-09-16T05:49:32.841Z,3360.00
2022-09-16T05:50:39.196Z,2464.00
2022-09-16T05:51:33.093Z,2724.00
2022-09-16T05:52:32.810Z,4724.00
2022-09-16T05:53:32.977Z,5756.00
2022-09-16T05:54:32.790Z,4652.00
2022-09-16T05:55:32.795Z,4132.00
2022-09-16T05:56:32.763Z,5316.00
2022-09-16T05:57:32.750Z,4140.00
2022-09-16T05:58:32.859Z,2972.00
2022-09-16T05:59:32.896Z,3412.00
2022-09-16T06:00:32.732Z,4180.00
2022-09-16T06:01:32.767Z,4780.00
2022-09-16T06:02:32.727Z,6396.00
2022-09-16T06:03:32.701Z,4100.00
2022-09-16T06:04:32.673Z,8084.00
2022-09-16T06:05:32.662Z,5376.00
2022-09-16T06:06:32.654Z,6152.00
2022-09-16T06:07:32.671Z,12696.00
2022-09-16T06:08:33.509Z,4608.00
2022-09-16T06:09:32.618Z,6356.00
2022-09-16T06:10:32.690Z,15200.00
2022-09-16T06:11:32.594Z,4608.00
2022-09-16T06:12:32.599Z,6348.00
2022-09-16T06:13:32.573Z,7940.00
2022-09-16T06:14:32.566Z,8048.00
2022-09-16T06:15:32.754Z,5628.00
2022-09-16T06:16:32.540Z,3668.00
2022-09-16T06:17:32.526Z,3088.00
2022-09-16T06:18:33.554Z,5060.00
2022-09-16T06:19:32.508Z,13424.00
2022-09-16T06:20:32.498Z,7216.00
2022-09-16T06:21:32.481Z,7316.00
2022-09-16T06:22:32.491Z,6208.00
2022-09-16T06:23:32.465Z,4704.00
2022-09-16T06:24:32.450Z,7628.00
2022-09-16T06:25:32.471Z,7536.00
2022-09-16T06:26:34.316Z,22080.00
2022-09-16T06:27:32.417Z,8980.00
2022-09-16T06:28:32.405Z,9016.00
2022-09-16T06:29:32.396Z,8368.00
2022-09-16T06:30:32.607Z,9428.00
2022-09-16T06:31:32.490Z,8296.00
2022-09-16T06:32:32.383Z,10336.00
2022-09-16T06:33:32.360Z,7360.00
2022-09-16T06:34:32.347Z,4088.00
2022-09-16T06:35:32.327Z,5304.00
2022-09-16T06:36:32.337Z,5592.00
2022-09-16T06:37:32.517Z,6252.00
2022-09-16T06:38:32.415Z,5472.00
2022-09-16T06:39:32.281Z,3728.00
2022-09-16T06:40:32.357Z,4760.00
2022-09-16T06:41:32.260Z,5212.00
2022-09-16T06:42:32.516Z,6156.00
2022-09-16T06:43:32.235Z,4804.00
2022-09-16T06:44:32.258Z,4944.00
2022-09-16T06:45:32.218Z,6128.00
2022-09-16T06:46:32.207Z,10520.00
2022-09-16T06:47:32.319Z,15616.00
2022-09-16T06:48:32.204Z,10344.00
2022-09-16T06:49:32.172Z,7120.00
2022-09-16T06:50:32.165Z,9648.00
2022-09-16T06:51:32.171Z,8756.00
2022-09-16T06:52:32.141Z,9608.00
2022-09-16T06:53:32.129Z,8032.00
2022-09-16T06:54:32.121Z,7620.00
2022-09-16T06:55:32.125Z,9824.00
2022-09-16T06:56:32.112Z,9072.00
2022-09-16T06:57:32.085Z,5036.00
2022-09-16T06:58:32.077Z,5068.00
2022-09-16T06:59:32.128Z,8708.00
2022-09-16T07:00:33.538Z,8028.00
2022-09-16T07:01:32.111Z,4932.00
2022-09-16T07:02:32.125Z,3236.00
2022-09-16T07:03:32.132Z,2772.00
2022-09-16T07:04:32.007Z,3376.00
2022-09-16T07:05:32.012Z,8524.00
2022-09-16T07:07:32.976Z,14468.00
2022-09-16T07:08:31.965Z,9756.00
2022-09-16T07:09:31.972Z,10816.00
2022-09-16T07:10:31.941Z,9216.00
2022-09-16T07:11:31.930Z,11568.00
2022-09-16T07:12:31.947Z,34080.00
2022-09-16T07:13:31.909Z,8408.00
2022-09-16T07:14:32.191Z,9720.00
2022-09-16T07:15:31.885Z,17408.00
2022-09-16T07:16:31.989Z,34720.00
2022-09-16T07:17:31.863Z,24288.00
2022-09-16T07:18:32.182Z,13300.00
2022-09-16T07:19:31.964Z,9652.00
2022-09-16T07:20:31.831Z,8012.00
2022-09-16T07:21:31.818Z,12248.00
2022-09-16T07:22:31.809Z,16256.00
2022-09-16T07:23:31.808Z,13768.00
2022-09-16T07:24:31.800Z,5788.00
2022-09-16T07:25:35.708Z,7212.00
2022-09-16T07:26:31.763Z,6284.00
2022-09-16T07:27:36.813Z,6108.00
2022-09-16T07:28:31.765Z,7212.00
2022-09-16T07:29:31.730Z,5696.00
2022-09-16T07:30:31.784Z,6108.00
2022-09-16T07:31:31.718Z,10304.00
2022-09-16T07:32:31.703Z,14752.00
2022-09-16T07:33:31.730Z,10776.00
2022-09-16T07:34:31.677Z,7840.00
2022-09-16T07:35:31.810Z,8580.00
2022-09-16T07:36:31.654Z,11308.00
2022-09-16T07:37:31.656Z,61248.00
2022-09-16T07:38:31.629Z,13088.00
2022-09-16T07:39:31.623Z,11048.00
2022-09-16T07:40:31.782Z,26624.00
2022-09-16T07:41:31.590Z,64768.00
2022-09-16T07:42:31.607Z,15180.00
2022-09-16T07:43:31.576Z,17568.00
2022-09-16T07:44:31.562Z,71264.00
2022-09-16T07:45:31.588Z,65024.00
2022-09-16T07:46:31.557Z,43584.00
2022-09-16T07:47:31.546Z,69056.00
2022-09-16T07:48:34.894Z,30496.00
2022-09-16T07:49:31.502Z,69920.00
2022-09-16T07:50:31.504Z,69344.00
2022-09-16T07:51:31.616Z,66144.00
2022-09-16T07:52:31.475Z,62912.00
2022-09-16T07:53:31.464Z,67872.00
2022-09-16T07:54:31.453Z,58944.00
2022-09-16T07:55:31.440Z,15264.00
2022-09-16T07:56:31.446Z,32640.00
2022-09-16T07:57:31.433Z,50432.00
2022-09-16T07:58:31.409Z,10896.00
2022-09-16T07:59:31.393Z,47104.00
2022-09-16T08:00:31.385Z,65184.00
2022-09-16T08:01:31.654Z,16192.00
2022-09-16T08:02:31.430Z,15844.00
2022-09-16T08:03:31.464Z,46880.00
2022-09-16T08:04:31.358Z,17216.00
2022-09-16T08:05:31.330Z,10904.00
2022-09-16T08:06:31.348Z,12452.00
2022-09-16T08:07:31.632Z,10716.00
2022-09-16T08:08:31.295Z,9620.00
2022-09-16T08:09:39.122Z,9204.00
2022-09-16T08:10:32.563Z,10764.00
2022-09-16T08:11:31.264Z,17536.00
2022-09-16T08:12:31.252Z,32320.00
2022-09-16T08:13:31.259Z,37472.00
2022-09-16T08:14:31.228Z,15872.00
2022-09-16T08:15:31.233Z,15936.00
2022-09-16T08:16:31.312Z,10836.00
2022-09-16T08:17:33.500Z,12016.00
2022-09-16T08:18:31.301Z,12548.00
2022-09-16T08:19:31.174Z,15192.00
2022-09-16T08:20:31.187Z,15552.00
2022-09-16T08:21:31.154Z,14280.00
2022-09-16T08:22:31.140Z,16096.00
2022-09-16T08:23:31.327Z,16896.00
2022-09-16T08:24:31.207Z,16736.00
2022-09-16T08:25:31.107Z,19456.00
2022-09-16T08:26:31.094Z,21280.00
2022-09-16T08:27:31.093Z,20608.00
2022-09-16T08:28:40.039Z,19488.00
2022-09-16T08:29:32.063Z,18560.00
2022-09-16T08:30:31.051Z,20416.00
2022-09-16T08:31:31.153Z,26240.00
2022-09-16T08:32:31.045Z,13728.00
2022-09-16T08:33:31.017Z,14264.00
2022-09-16T08:34:31.034Z,18528.00
2022-09-16T08:35:30.991Z,33408.00
2022-09-16T08:36:30.982Z,23936.00
2022-09-16T08:37:31.146Z,23648.00
2022-09-16T08:38:31.030Z,103328.00
2022-09-16T08:39:31.066Z,89696.00
2022-09-16T08:40:30.937Z,28640.00
2022-09-16T08:41:31.019Z,19488.00
2022-09-16T08:42:30.925Z,21248.00
2022-09-16T08:43:30.974Z,49568.00
2022-09-16T08:44:30.898Z,40800.00
2022-09-16T08:45:30.960Z,71040.00
2022-09-16T08:46:30.870Z,27136.00
2022-09-16T08:47:30.877Z,21600.00
2022-09-16T08:48:30.900Z,20544.00
2022-09-16T08:49:30.861Z,14320.00
2022-09-16T08:50:30.845Z,11396.00
2022-09-16T08:51:30.833Z,12192.00
2022-09-16T08:52:30.822Z,20768.00
2022-09-16T08:53:30.866Z,46208.00
2022-09-16T08:54:30.836Z,97472.00
2022-09-16T08:55:30.913Z,13956.00
2022-09-16T08:56:30.811Z,83360.00
2022-09-16T08:57:30.768Z,95072.00
2022-09-16T08:58:30.807Z,25696.00
2022-09-16T08:59:30.779Z,22848.00
2022-09-16T09:00:30.739Z,97344.00
2022-09-16T09:01:30.868Z,22208.00
2022-09-16T09:02:31.232Z,95552.00
2022-09-16T09:03:30.765Z,14340.00
2022-09-16T09:04:30.695Z,9244.00
2022-09-16T09:05:30.681Z,10016.00
2022-09-16T09:06:30.668Z,12772.00
2022-09-16T09:07:30.847Z,19456.00
2022-09-16T09:08:30.649Z,94528.00
2022-09-16T09:09:30.638Z,98144.00
2022-09-16T09:10:30.628Z,94656.00
2022-09-16T09:11:31.288Z,97792.00
2022-09-16T09:12:31.590Z,21952.00
2022-09-16T09:13:30.627Z,31328.00
2022-09-16T09:14:30.582Z,17856.00
2022-09-16T09:15:30.582Z,41728.00
2022-09-16T09:16:30.602Z,15428.00
2022-09-16T09:17:30.544Z,16480.00
2022-09-16T09:18:30.550Z,94912.00
2022-09-16T09:19:30.528Z,52032.00
2022-09-16T09:20:30.517Z,13540.00
2022-09-16T09:21:30.505Z,10828.00
2022-09-16T09:22:30.494Z,12376.00
2022-09-16T09:23:30.569Z,17920.00
2022-09-16T09:24:30.474Z,23488.00
2022-09-16T09:25:30.466Z,12264.00
2022-09-16T09:26:30.487Z,12048.00
2022-09-16T09:27:30.567Z,12220.00
2022-09-16T09:28:30.449Z,95392.00
2022-09-16T09:29:30.424Z,95360.00
2022-09-16T09:30:30.407Z,26784.00
2022-09-16T09:31:30.477Z,9228.00
2022-09-16T09:32:41.893Z,95040.00
2022-09-16T09:33:47.184Z,94624.00
2022-09-16T09:34:31.375Z,95232.00
2022-09-16T09:35:30.352Z,93376.00
2022-09-16T09:36:30.451Z,98944.00
2022-09-16T09:37:30.356Z,92672.00
2022-09-16T09:38:30.317Z,92320.00
2022-09-16T09:39:30.307Z,91840.00
2022-09-16T09:40:30.351Z,91840.00
2022-09-16T09:41:30.390Z,93088.00
2022-09-16T09:42:30.289Z,96288.00
2022-09-16T09:43:30.438Z,98976.00
2022-09-16T09:44:30.252Z,23360.00
2022-09-16T09:45:30.243Z,19360.00
2022-09-16T09:46:30.261Z,35008.00
2022-09-16T09:47:30.219Z,107744.00
2022-09-16T09:48:30.210Z,105792.00
2022-09-16T09:49:30.197Z,108192.00
2022-09-16T09:50:30.194Z,27296.00
2022-09-16T09:51:30.189Z,102624.00
2022-09-16T09:52:30.182Z,101824.00
2022-09-16T09:53:30.155Z,77824.00
2022-09-16T09:54:30.345Z,100192.00
2022-09-16T09:55:30.135Z,97472.00
2022-09-16T09:56:30.131Z,98432.00
2022-09-16T09:57:30.131Z,104768.00
2022-09-16T09:58:30.175Z,104768.00
2022-09-16T09:59:30.218Z,21792.00
2022-09-16T10:00:30.103Z,54496.00
2022-09-16T10:01:30.077Z,105568.00
2022-09-16T10:02:30.158Z,35008.00
2022-09-16T10:03:30.051Z,107744.00
2022-09-16T10:04:30.042Z,105024.00
2022-09-16T10:05:30.049Z,104864.00
2022-09-16T10:06:30.026Z,26048.00
2022-09-16T10:07:30.010Z,23360.00
2022-09-16T10:08:30.070Z,100160.00
2022-09-16T10:09:30.005Z,31936.00
2022-09-16T10:10:29.979Z,30400.00
2022-09-16T10:11:30.581Z,19040.00
2022-09-16T10:12:32.768Z,20864.00
2022-09-16T10:13:29.954Z,18016.00
2022-09-16T10:14:29.938Z,18720.00
2022-09-16T10:15:30.055Z,53504.00
2022-09-16T10:16:29.984Z,104416.00
2022-09-16T10:17:29.903Z,19744.00
2022-09-16T10:18:29.959Z,18528.00
2022-09-16T10:19:29.881Z,26400.00
2022-09-16T10:20:29.869Z,12712.00
2022-09-16T10:21:29.879Z,11548.00
2022-09-16T10:22:29.867Z,9680.00
2022-09-16T10:23:30.517Z,8652.00
2022-09-16T10:24:29.829Z,9660.00
2022-09-16T10:25:29.830Z,97280.00
2022-09-16T10:26:29.805Z,17728.00
2022-09-16T10:27:29.796Z,18432.00
2022-09-16T10:28:29.786Z,20032.00
2022-09-16T10:29:29.767Z,27040.00
2022-09-16T10:30:29.869Z,97088.00
2022-09-16T10:31:33.533Z,104256.00
2022-09-16T10:32:29.736Z,99296.00
2022-09-16T10:33:29.728Z,33152.00
2022-09-16T10:34:29.733Z,22336.00
2022-09-16T10:35:29.705Z,15552.00
2022-09-16T10:36:29.703Z,16896.00
2022-09-16T10:37:29.686Z,22912.00
2022-09-16T10:38:29.689Z,28320.00
2022-09-16T10:39:29.678Z,68576.00
2022-09-16T10:40:29.692Z,45184.00
2022-09-16T10:41:29.641Z,62720.00
2022-09-16T10:42:29.630Z,62208.00
2022-09-16T10:43:29.632Z,68896.00
2022-09-16T10:44:29.608Z,107776.00
2022-09-16T10:45:29.704Z,26624.00
2022-09-16T10:46:29.732Z,73600.00
2022-09-16T10:47:29.714Z,103648.00
2022-09-16T10:48:29.568Z,101280.00
2022-09-16T10:49:29.570Z,102336.00
2022-09-16T10:50:29.562Z,100736.00
2022-09-16T10:51:29.540Z,52896.00
2022-09-16T10:52:29.538Z,74240.00
2022-09-16T10:53:29.525Z,87072.00
2022-09-16T10:54:29.556Z,21568.00
2022-09-16T10:55:29.493Z,16640.00
2022-09-16T10:56:29.484Z,71648.00
2022-09-16T10:57:29.490Z,97920.00
2022-09-16T10:58:29.458Z,99520.00
2022-09-16T10:59:29.453Z,98816.00
2022-09-16T11:00:29.436Z,98240.00
2022-09-16T11:01:30.031Z,95136.00
2022-09-16T11:02:29.516Z,94656.00
2022-09-16T11:03:29.548Z,91328.00
2022-09-16T11:04:29.474Z,88640.00
2022-09-16T11:05:29.380Z,86400.00
2022-09-16T11:06:29.373Z,86112.00
2022-09-16T11:07:29.362Z,86304.00
2022-09-16T11:08:29.371Z,86304.00
2022-09-16T11:09:29.342Z,87936.00
2022-09-16T11:10:29.336Z,86400.00
2022-09-16T11:11:29.410Z,86368.00
2022-09-16T11:12:29.326Z,86752.00
2022-09-16T11:13:29.304Z,86880.00
2022-09-16T11:14:29.367Z,88256.00
2022-09-16T11:15:29.313Z,96064.00
2022-09-16T11:16:29.330Z,61088.00
2022-09-16T11:17:29.279Z,26304.00
2022-09-16T11:18:29.252Z,20480.00
2022-09-16T11:19:29.524Z,17120.00
2022-09-16T11:20:29.227Z,15432.00
2022-09-16T11:21:29.481Z,14968.00
2022-09-16T11:22:29.208Z,14876.00
2022-09-16T11:23:29.207Z,13560.00
2022-09-16T11:24:29.253Z,11992.00
2022-09-16T11:25:29.197Z,10488.00
2022-09-16T11:26:29.179Z,8152.00
2022-09-16T11:27:29.157Z,5700.00
2022-09-16T11:28:31.999Z,4220.00
2022-09-16T11:29:29.137Z,4376.00
2022-09-16T11:30:29.303Z,8868.00
2022-09-16T11:31:29.152Z,72768.00
2022-09-16T11:32:29.098Z,16512.00
2022-09-16T11:33:29.120Z,10144.00
2022-09-16T11:34:29.112Z,7768.00
2022-09-16T11:35:29.203Z,7188.00
2022-09-16T11:36:29.077Z,8568.00
2022-09-16T11:37:29.043Z,18944.00
2022-09-16T11:38:29.047Z,89408.00
2022-09-16T11:39:29.042Z,94528.00
2022-09-16T11:40:40.643Z,25440.00
2022-09-16T11:41:29.646Z,18528.00
2022-09-16T11:42:29.021Z,11492.00
2022-09-16T11:43:28.978Z,9192.00
2022-09-16T11:44:28.969Z,9520.00
2022-09-16T11:45:28.962Z,72896.00
2022-09-16T11:46:29.030Z,16288.00
2022-09-16T11:47:28.954Z,17760.00
2022-09-16T11:48:28.927Z,88288.00
2022-09-16T11:49:28.942Z,85248.00
2022-09-16T11:50:28.903Z,84736.00
2022-09-16T11:51:33.206Z,66240.00
2022-09-16T11:52:31.749Z,9256.00
2022-09-16T11:53:33.059Z,9364.00
2022-09-16T11:54:29.863Z,8424.00
2022-09-16T11:55:28.850Z,9500.00
2022-09-16T11:56:28.876Z,9428.00
2022-09-16T11:57:28.845Z,9892.00
2022-09-16T11:58:28.816Z,10460.00
2022-09-16T11:59:28.807Z,11500.00
2022-09-16T12:00:28.797Z,9180.00
2022-09-16T12:01:28.794Z,7568.00
2022-09-16T12:02:28.842Z,11196.00
2022-09-16T12:03:28.889Z,86880.00
2022-09-16T12:04:28.755Z,15628.00
2022-09-16T12:05:28.741Z,18624.00
2022-09-16T12:06:28.812Z,20640.00
2022-09-16T12:07:28.957Z,11688.00
2022-09-16T12:08:28.707Z,10616.00
2022-09-16T12:09:28.714Z,12452.00
2022-09-16T12:10:28.710Z,13068.00
2022-09-16T12:11:28.676Z,11976.00
2022-09-16T12:12:28.959Z,11416.00
2022-09-16T12:13:28.650Z,9544.00
2022-09-16T12:14:28.640Z,8988.00
2022-09-16T12:15:28.783Z,76928.00
2022-09-16T12:16:30.643Z,82912.00
2022-09-16T12:17:28.608Z,81568.00
2022-09-16T12:18:28.600Z,19808.00
2022-09-16T12:19:28.588Z,84544.00
2022-09-16T12:20:28.592Z,13032.00
2022-09-16T12:21:28.568Z,11940.00
2022-09-16T12:22:28.550Z,82528.00